Home > Products > Valid Products > TAF

000
FTUS44 KLCH 282300
TAFAEX
TAF
KAEX 282326Z 2900/2924 16005KT P6SM SCT250
     FM290800 18002KT 3SM BR FEW250
     FM291000 00000KT 2SM BR FEW250
      TEMPO 2910/2914 1/2SM FG BKN004
     FM291500 24008KT P6SM BKN250
     FM292300 31008KT P6SM BKN250=



000
FTUS44 KLCH 282300
TAFLCH
TAF
KLCH 282326Z 2900/2924 16007KT P6SM FEW250
     FM290800 18002KT 3SM BR FEW250
      TEMPO 2909/2913 1SM BR SCT005
     FM291500 22007KT P6SM SCT250=



000
FTUS44 KLCH 282300
TAFARA
TAF
KARA 282326Z 2900/2924 18008KT P6SM FEW250
     FM290800 17003KT 3SM BR FEW250
      TEMPO 2909/2913 3/4SM BR
     FM291500 22008KT P6SM SCT250=



000
FTUS44 KLCH 282300
TAFLFT
TAF
KLFT 282326Z 2900/2924 17006KT P6SM FEW250
     FM290800 18002KT 5SM BR FEW250
      TEMPO 2909/2913 2SM BR SCT005
     FM291500 23007KT P6SM SCT250=



000
FTUS44 KLCH 282300
TAFBPT
TAF
KBPT 282326Z 2900/2924 15008KT P6SM SKC
     FM290600 17005KT 4SM BR FEW250
     FM290900 19003KT 2SM BR FEW250
      TEMPO 2910/2914 1/2SM FG BKN004
     FM291500 23008KT P6SM SCT250=



000
FTUS44 KLCH 281700
TAFAEX
TAF
KAEX 281732Z 2818/2918 15009KT P6SM FEW250
     FM290000 17004KT P6SM FEW250
      TEMPO 2909/2912 5SM BR
     FM291500 23008KT P6SM BKN250=



000
FTUS44 KLCH 281700
TAFBPT
TAF
KBPT 281732Z 2818/2918 12010KT P6SM SKC
     FM290100 16005KT P6SM FEW250
     FM290900 VRB03KT 5SM BR FEW250
     FM291500 22004KT P6SM FEW250=



000
FTUS44 KLCH 281700
TAFLCH
TAF
KLCH 281732Z 2818/2918 13010KT P6SM SKC
     FM281900 16010KT P6SM FEW250
     FM290000 16004KT P6SM FEW250
     FM290800 00000KT 3SM BR FEW250
     FM291500 22004KT P6SM FEW250=



000
FTUS44 KLCH 281700
TAFARA
TAF
KARA 281732Z 2818/2918 12010KT P6SM SKC
     FM290000 16006KT P6SM FEW250
     FM290900 VRB03KT 5SM BR FEW250
     FM291500 22004KT P6SM FEW250=



000
FTUS44 KLCH 281700
TAFLFT
TAF
KLFT 281732Z 2818/2918 VRB04KT P6SM SKC
     FM281900 16008KT P6SM SKC
     FM290100 VRB03KT P6SM FEW250
      TEMPO 2909/2912 5SM BR=



000
FTUS44 KLCH 281100
TAFARA
TAF
KARA 281120Z 2812/2912 VRB04KT P6SM SKC
     FM281900 16010KT P6SM SKC
     FM290000 16006KT P6SM FEW250
     FM290900 VRB03KT 5SM BR FEW250=



000
FTUS44 KLCH 281100
TAFLFT
TAF
KLFT 281120Z 2812/2912 VRB04KT P6SM SKC
     FM281900 16008KT P6SM SKC
     FM290100 VRB03KT P6SM FEW250
      TEMPO 2909/2912 5SM BR=



000
FTUS44 KLCH 281100
TAFAEX
TAF
KAEX 281120Z 2812/2912 VRB04KT P6SM SKC
     FM281900 16009KT P6SM FEW250
     FM290000 17004KT P6SM FEW250
      TEMPO 2909/2912 5SM BR=



000
FTUS44 KLCH 281100
TAFBPT
TAF
KBPT 281120Z 2812/2912 VRB03KT P6SM SKC
     FM281500 12010KT P6SM SKC
     FM290100 16005KT P6SM FEW250
     FM290900 VRB03KT 5SM BR FEW250=



000
FTUS44 KLCH 281100
TAFLCH
TAF
KLCH 281120Z 2812/2912 VRB04KT P6SM SKC
      TEMPO 2812/2815 4SM BR
     FM281600 12010KT P6SM SKC
     FM281900 16010KT P6SM FEW250
     FM290000 16004KT P6SM FEW250
     FM290800 00000KT 3SM BR FEW250=



000
FTUS44 KLCH 280500
TAFARA
TAF
KARA 280520Z 2806/2906 VRB03KT P6SM SKC
     FM281500 12009KT P6SM SKC
     FM282100 17005KT P6SM SKC=



000
FTUS44 KLCH 280500
TAFAEX
TAF
KAEX 280520Z 2806/2906 00000KT P6SM SKC
     FM281500 14008KT P6SM SKC
     FM290000 17004KT P6SM SKC=



000
FTUS44 KLCH 280500
TAFLCH
TAF
KLCH 280520Z 2806/2906 00000KT P6SM FEW250
      TEMPO 2808/2812 4SM BR
     FM281500 14009KT P6SM SKC
     FM290000 16004KT P6SM SKC=



000
FTUS44 KLCH 280500
TAFBPT
TAF
KBPT 280520Z 2806/2906 00000KT P6SM FEW250
      TEMPO 2808/2812 4SM BR
     FM281500 14010KT P6SM SKC
     FM290100 16005KT P6SM SKC=



000
FTUS44 KLCH 280500
TAFLFT
TAF
KLFT 280520Z 2806/2906 00000KT P6SM SKC
     FM281500 12004KT P6SM SKC
     FM282100 17005KT P6SM SKC=



000
FTUS44 KLCH 272300
TAFARA
TAF
KARA 272320Z 2800/2824 01007KT P6SM SKC
     FM281500 12007KT P6SM SKC=



000
FTUS44 KLCH 272300
TAFBPT
TAF
KBPT 272320Z 2800/2824 VRB03KT P6SM SKC
     FM281500 14009KT P6SM SKC=



000
FTUS44 KLCH 272300
TAFAEX
TAF
KAEX 272320Z 2800/2824 VRB03KT P6SM SKC
     FM281500 13007KT P6SM SKC=



000
FTUS44 KLCH 272300
TAFLCH
TAF
KLCH 272320Z 2800/2824 VRB03KT P6SM SKC
     FM281500 14008KT P6SM SKC=



000
FTUS44 KLCH 272300
TAFLFT
TAF
KLFT 272320Z 2800/2824 VRB03KT P6SM SKC
     FM281500 12006KT P6SM SKC=



000
FTUS44 KLCH 271700
TAFAEX
TAF
KAEX 271720Z 2718/2818 VRB03KT P6SM SKC
     FM281500 13007KT P6SM SKC=



000
FTUS44 KLCH 271700
TAFBPT
TAF
KBPT 271720Z 2718/2818 VRB04KT P6SM SKC
     FM281500 13009KT P6SM SKC=



000
FTUS44 KLCH 271700
TAFLFT
TAF
KLFT 271720Z 2718/2818 01008KT P6SM SKC
     FM280000 VRB03KT P6SM SKC
     FM281500 12006KT P6SM SKC=



000
FTUS44 KLCH 271700
TAFARA
TAF
KARA 271720Z 2718/2818 01008KT P6SM SKC
     FM280000 VRB03KT P6SM SKC
     FM281500 12006KT P6SM SKC=



000
FTUS44 KLCH 271700
TAFLCH
TAF
KLCH 271720Z 2718/2818 VRB05KT P6SM SKC
     FM281500 12008KT P6SM SKC=



000
FTUS44 KLCH 271100
TAFARA
TAF
KARA 271120Z 2712/2812 VRB05KT P6SM SCT250=



000
FTUS44 KLCH 271100
TAFLFT
TAF
KLFT 271120Z 2712/2812 VRB05KT P6SM SCT250=



000
FTUS44 KLCH 271100
TAFLCH
TAF
KLCH 271120Z 2712/2812 VRB05KT P6SM BKN250=



000
FTUS44 KLCH 271100
TAFAEX
TAF
KAEX 271120Z 2712/2812 VRB05KT P6SM FEW250=



000
FTUS44 KLCH 271100
TAFBPT
TAF
KBPT 271120Z 2712/2812 VRB05KT P6SM BKN250=



000
FTUS44 KLCH 270500
TAFLFT
TAF
KLFT 270520Z 2706/2806 24003KT P6SM FEW250
     FM271500 33007KT P6SM SCT250
     FM280000 VRB03KT P6SM SCT250=



000
FTUS44 KLCH 270500
TAFLCH
TAF
KLCH 270520Z 2706/2806 25003KT P6SM SCT250
     FM271500 33007KT P6SM SCT250
     FM280000 VRB03KT P6SM SCT250=



000
FTUS44 KLCH 270500
TAFARA
TAF
KARA 270520Z 2706/2806 24003KT P6SM FEW250
     FM271500 33008KT P6SM SCT250
     FM280000 VRB03KT P6SM SCT250=



000
FTUS44 KLCH 270500
TAFBPT
TAF
KBPT 270520Z 2706/2806 24004KT P6SM SCT250
     FM271500 30007KT P6SM SCT250
     FM280000 VRB03KT P6SM SCT250=



000
FTUS44 KLCH 270500
TAFAEX
TAF
KAEX 270520Z 2706/2806 00000KT P6SM SKC
     FM271500 34005KT P6SM FEW250=



000
FTUS44 KLCH 262300
TAFBPT
TAF
KBPT 262320Z 2700/2724 26005KT P6SM SCT200
     FM271500 30007KT P6SM SCT200=



000
FTUS44 KLCH 262300
TAFLFT
TAF
KLFT 262320Z 2700/2724 28005KT P6SM SCT200
     FM271500 33007KT P6SM SCT200=



000
FTUS44 KLCH 262300
TAFLCH
TAF
KLCH 262320Z 2700/2724 29005KT P6SM SCT200
     FM271500 33007KT P6SM SCT200=



000
FTUS44 KLCH 262300
TAFARA
TAF
KARA 262320Z 2700/2724 27005KT P6SM SCT200
     FM271500 33008KT P6SM SCT200=



000
FTUS44 KLCH 262300
TAFAEX
TAF
KAEX 262320Z 2700/2724 23004KT P6SM SCT200
     FM271500 34006KT P6SM SCT200=



000
FTUS44 KLCH 261900 AAA
TAFARA
TAF AMD
KARA 261933Z 2620/2718 33013KT P6SM SCT200
     FM262100 33011KT P6SM SCT200
     FM270000 25003KT P6SM SCT200
     FM271500 33006KT P6SM SCT200=



000
FTUS44 KLCH 261900 AAA
TAFLFT
TAF AMD
KLFT 261933Z 2620/2718 32010KT P6SM SCT200
     FM270000 25003KT P6SM SCT200
     FM271500 33006KT P6SM SCT200=



000
FTUS44 KLCH 261700
TAFBPT
TAF
KBPT 261720Z 2618/2718 31009KT P6SM SCT200
     FM270000 24004KT P6SM SCT200
     FM271500 29007KT P6SM SCT200=



000
FTUS44 KLCH 261700
TAFLFT
TAF
KLFT 261720Z 2618/2718 36013KT P6SM SCT200
     FM262100 34010KT P6SM SCT200
     FM270000 25003KT P6SM SCT200
     FM271500 33006KT P6SM SCT200=



000
FTUS44 KLCH 261700
TAFAEX
TAF
KAEX 261720Z 2618/2718 30007KT P6SM SCT200
     FM270000 25003KT P6SM SCT200
     FM271500 34005KT P6SM SCT200=



000
FTUS44 KLCH 261700
TAFLCH
TAF
KLCH 261720Z 2618/2718 03007KT P6SM SCT200
     FM262100 09006KT P6SM SCT200
     FM270000 VRB03KT P6SM SCT200
     FM271500 20006KT P6SM SCT200=



000
FTUS44 KLCH 261700
TAFARA
TAF
KARA 261720Z 2618/2718 36014KT P6SM SCT200
     FM262100 33011KT P6SM SCT200
     FM270000 25003KT P6SM SCT200
     FM271500 33006KT P6SM SCT200=



000
FTUS44 KLCH 261600 AAA
TAFARA
TAF AMD
KARA 261608Z 2616/2712 36013KT P6SM SCT200
     FM262100 32008KT P6SM SCT200
     FM270200 VRB03KT P6SM SCT200=



000
FTUS44 KLCH 261100
TAFBPT
TAF
KBPT 261124Z 2612/2712 34012KT P6SM SCT200
     FM261800 31008KT P6SM SCT200
     FM270000 VRB04KT P6SM SCT200=



000
FTUS44 KLCH 261100
TAFLFT
TAF
KLFT 261124Z 2612/2712 34010KT P6SM SCT200
     FM262100 32008KT P6SM SCT200
     FM270200 VRB03KT P6SM SCT200=



000
FTUS44 KLCH 261100
TAFAEX
TAF
KAEX 261124Z 2612/2712 32009KT P6SM FEW200
     FM270000 VRB03KT P6SM SKC=



000
FTUS44 KLCH 261100
TAFARA
TAF
KARA 261124Z 2612/2712 34010KT P6SM SCT200
     FM262100 32008KT P6SM SCT200
     FM270200 VRB03KT P6SM SCT200=



000
FTUS44 KLCH 261100
TAFLCH
TAF
KLCH 261124Z 2612/2712 34012KT P6SM SCT200
     FM261900 32008KT P6SM SCT200
     FM270100 VRB03KT P6SM SCT200=



000
FTUS44 KLCH 260500
TAFBPT
TAF
KBPT 260522Z 2606/2706 32011G19KT P6SM SKC
     FM261500 34011KT P6SM SKC=



000
FTUS44 KLCH 260500
TAFAEX
TAF
KAEX 260522Z 2606/2706 31008KT P6SM SKC
     FM261500 30011KT P6SM SKC=



000
FTUS44 KLCH 260500
TAFARA
TAF
KARA 260522Z 2606/2706 31010KT P6SM SKC
     FM261500 34011KT P6SM SKC=



000
FTUS44 KLCH 260500
TAFLCH
TAF
KLCH 260522Z 2606/2706 33011G17KT P6SM SKC
     FM261500 33012KT P6SM SKC=



000
FTUS44 KLCH 260500
TAFLFT
TAF
KLFT 260522Z 2606/2706 32008KT P6SM SKC
     FM261500 34011KT P6SM SKC=



000
FTUS44 KLCH 260400 AAA
TAFBPT
TAF AMD
KBPT 260459Z 2605/2624 32011G19KT P6SM SKC
     FM261500 34011KT P6SM SKC=



000
FTUS44 KLCH 260400 AAB
TAFLCH
TAF AMD
KLCH 260458Z 2605/2624 33011G17KT P6SM SKC
     FM261500 33012KT P6SM SKC=



    US Dept of Commerce
    National Oceanic and Atmospheric Administration
    National Weather Service
    1325 East West Highway
    Silver Spring, MD 20910
    Page Author: NWS Internet Services Team
Disclaimer
Information Quality
Credits
Glossary
Privacy Policy
Freedom of Information Act (FOIA)
About Us
Career Opportunities